Time;durP1;ratioP1;P1;durP2;ratioP2;P2;SDS_P1;SDS_P2;PMS_P1;PMS_P2;Temp;Humidity;BMP_temperature;BMP_pressure;BME280_temperature;BME280_humidity;BME280_pressure;Samples;Min_cycle;Max_cycle;Signal;HPM_P1;HPM_P2
2022/11/02 00:00:52;;;;;;;40.50;28.50;;;;;;;9.59;100.00;100000.69;4917520;29;20032;-91
2022/11/02 00:03:18;;;;;;;33.90;25.88;;;;;;;9.55;100.00;100002.56;4917666;29;20024;-90
2022/11/02 00:05:43;;;;;;;37.35;26.77;;;;;;;9.52;100.00;100007.88;4918272;29;20028;-91
2022/11/02 00:08:09;;;;;;;35.90;25.92;;;;;;;9.44;100.00;100013.38;4921476;29;20123;-91
2022/11/02 00:10:34;;;;;;;33.30;25.70;;;;;;;9.42;100.00;100009.13;4921415;29;20020;-90
2022/11/02 00:13:00;;;;;;;37.13;26.27;;;;;;;9.35;100.00;99999.84;4921275;29;20039;-89
2022/11/02 00:15:29;;;;;;;36.10;26.50;;;;;;;9.40;100.00;100006.59;4921240;29;20134;-89
2022/11/02 00:18:06;;;;;;;33.90;26.77;;;;;;;9.30;100.00;99997.41;4938579;29;20055;-89
2022/11/02 00:20:34;;;;;;;32.35;24.77;;;;;;;9.32;100.00;99998.22;4921282;29;20127;-88
2022/11/02 00:23:00;;;;;;;33.15;25.05;;;;;;;9.35;100.00;100010.22;4916488;29;20087;-89
2022/11/02 00:25:28;;;;;;;35.85;24.25;;;;;;;9.28;100.00;99999.22;4916775;29;20161;-91
2022/11/02 00:27:53;;;;;;;33.30;25.88;;;;;;;9.31;100.00;100004.28;4900862;29;20093;-90
2022/11/02 00:30:19;;;;;;;33.50;25.38;;;;;;;9.26;100.00;99995.81;4916843;29;20480;-90
2022/11/02 00:32:44;;;;;;;33.33;25.23;;;;;;;9.28;100.00;100003.56;4900784;29;20024;-90
2022/11/02 00:35:10;;;;;;;39.55;28.20;;;;;;;9.22;100.00;100005.47;4916728;29;20040;-89
2022/11/02 00:37:36;;;;;;;36.13;27.15;;;;;;;9.17;100.00;100003.94;4916740;29;20035;-89
2022/11/02 00:40:01;;;;;;;37.53;25.67;;;;;;;9.12;100.00;99995.47;4916630;29;20032;-88
2022/11/02 00:42:27;;;;;;;33.50;24.23;;;;;;;9.20;100.00;100015.09;4916636;29;20707;-90
2022/11/02 00:44:52;;;;;;;34.42;25.83;;;;;;;9.16;100.00;100017.84;4900493;29;20028;-90
2022/11/02 00:47:18;;;;;;;38.35;25.65;;;;;;;9.13;100.00;100020.53;4916356;29;20032;-90
2022/11/02 00:49:43;;;;;;;36.15;25.15;;;;;;;9.06;100.00;100025.13;4916277;29;20415;-90
2022/11/02 00:52:08;;;;;;;37.67;25.52;;;;;;;9.06;100.00;100030.31;4916455;29;20546;-91
2022/11/02 00:54:34;;;;;;;38.28;25.35;;;;;;;9.02;100.00;100026.13;4900705;29;20040;-91
2022/11/02 00:56:59;;;;;;;43.55;30.83;;;;;;;8.89;100.00;100010.09;4897166;29;20055;-89
2022/11/02 00:59:25;;;;;;;47.17;34.00;;;;;;;8.92;100.00;100025.56;4897288;29;20040;-91
2022/11/02 01:01:50;;;;;;;45.75;32.53;;;;;;;8.94;100.00;100026.38;4881490;29;20040;-89
2022/11/02 01:04:16;;;;;;;49.78;33.25;;;;;;;8.84;100.00;100024.97;4897342;29;20032;-89
2022/11/02 01:06:42;;;;;;;58.58;42.42;;;;;;;8.87;100.00;100031.81;4881616;29;20029;-89
2022/11/02 01:09:09;;;;;;;46.33;34.78;;;;;;;8.90;100.00;100032.59;4881389;29;20164;-88
2022/11/02 01:11:35;;;;;;;48.70;35.10;;;;;;;8.89;100.00;100036.09;4897157;29;20032;-90
2022/11/02 01:14:00;;;;;;;46.25;33.30;;;;;;;8.83;100.00;100023.28;4896737;29;20492;-90
2022/11/02 01:16:26;;;;;;;58.30;40.00;;;;;;;8.80;100.00;100023.38;4881022;29;20153;-90
2022/11/02 01:18:53;;;;;;;47.65;34.70;;;;;;;8.85;100.00;100031.00;4877132;29;20029;-90
2022/11/02 01:21:19;;;;;;;41.80;29.50;;;;;;;8.82;100.00;100029.38;4878166;29;20585;-89
2022/11/02 01:23:45;;;;;;;63.30;41.45;;;;;;;8.81;100.00;100030.28;4878214;29;20064;-90
2022/11/02 01:26:11;;;;;;;57.28;38.25;;;;;;;8.78;100.00;100025.19;4878164;29;20120;-90
2022/11/02 01:28:36;;;;;;;58.92;37.65;;;;;;;8.64;100.00;100017.88;4895362;29;20036;-90
2022/11/02 01:31:02;;;;;;;47.00;33.28;;;;;;;8.73;100.00;100030.53;4899737;29;20036;-90
2022/11/02 01:33:27;;;;;;;50.80;33.72;;;;;;;8.70;100.00;100029.78;4915744;29;20043;-90
2022/11/02 01:35:54;;;;;;;45.05;32.55;;;;;;;8.65;100.00;100026.50;4899669;29;20123;-91
2022/11/02 01:38:19;;;;;;;36.42;26.75;;;;;;;8.69;100.00;100031.53;4899906;29;20028;-91
2022/11/02 01:40:46;;;;;;;36.40;27.20;;;;;;;8.67;100.00;100027.28;4899847;29;20594;-90
2022/11/02 01:43:26;;;;;;;40.25;27.98;;;;;;;8.60;100.00;100021.47;4899686;29;20020;-90
2022/11/02 01:46:00;;;;;;;39.72;26.55;;;;;;;8.61;100.00;100024.91;4899243;29;20028;-89
2022/11/02 01:49:02;;;;;;;42.95;28.00;;;;;;;8.59;100.00;100022.34;4899499;29;20111;-90
2022/11/02 01:51:33;;;;;;;43.05;28.88;;;;;;;8.58;100.00;100025.00;4880800;29;20128;-89
2022/11/02 01:54:04;;;;;;;42.60;29.63;;;;;;;8.58;100.00;100022.41;4880510;29;20029;-91
2022/11/02 01:56:31;;;;;;;41.63;30.10;;;;;;;8.57;100.00;100026.75;4880647;29;20041;-90
2022/11/02 01:59:01;;;;;;;35.33;27.05;;;;;;;8.58;100.00;100032.78;4895998;29;20028;-90
2022/11/02 02:01:27;;;;;;;40.72;26.23;;;;;;;8.52;100.00;100018.25;4880596;29;20044;-90
2022/11/02 02:03:53;;;;;;;37.58;25.35;;;;;;;8.54;100.00;100021.66;4880494;29;20147;-90
2022/11/02 02:06:19;;;;;;;38.30;25.88;;;;;;;8.55;100.00;100030.28;4880323;29;20111;-89
2022/11/02 02:08:48;;;;;;;39.67;25.45;;;;;;;8.49;100.00;100015.75;4880317;29;20040;-90
2022/11/02 02:11:39;;;;;;;37.20;24.25;;;;;;;8.53;100.00;100024.31;4895756;29;20497;-90
2022/11/02 02:14:11;;;;;;;35.42;23.48;;;;;;;8.44;100.00;100017.66;4861447;29;20035;-90
2022/11/02 02:16:37;;;;;;;36.38;23.55;;;;;;;8.44;100.00;100021.09;4877007;29;20559;-90
2022/11/02 02:19:35;;;;;;;39.17;24.00;;;;;;;8.50;100.00;100033.03;4876785;29;20033;-90
2022/11/02 02:22:11;;;;;;;31.27;23.05;;;;;;;8.41;100.00;100021.19;4839712;29;20084;-90
2022/11/02 02:25:11;;;;;;;33.45;22.15;;;;;;;8.47;100.00;100035.75;4824860;29;20034;-89
2022/11/02 02:27:58;;;;;;;31.10;22.43;;;;;;;8.45;100.00;100030.56;4824975;29;20038;-88
2022/11/02 02:30:24;;;;;;;29.17;21.35;;;;;;;8.42;100.00;100032.41;4839999;29;20065;-88
2022/11/02 02:32:56;;;;;;;33.38;22.42;;;;;;;8.38;100.00;100025.63;4839903;29;20515;-89
2022/11/02 02:35:32;;;;;;;28.88;21.75;;;;;;;8.44;100.00;100033.22;4839985;29;20026;-89
2022/11/02 02:38:01;;;;;;;34.25;21.75;;;;;;;8.41;100.00;100038.50;4839841;29;20045;-88
2022/11/02 02:40:30;;;;;;;28.63;20.27;;;;;;;8.42;100.00;100040.19;4839860;29;20550;-89
2022/11/02 02:43:02;;;;;;;28.75;20.50;;;;;;;8.36;100.00;100038.63;4839704;29;20117;-88
2022/11/02 02:45:39;;;;;;;28.67;19.90;;;;;;;8.33;100.00;100023.16;4839725;29;20042;-89
2022/11/02 02:48:13;;;;;;;28.27;19.63;;;;;;;8.43;100.00;100036.72;4839607;29;20037;-89
2022/11/02 02:50:48;;;;;;;30.25;19.40;;;;;;;8.34;100.00;100024.84;4850220;29;20060;-89
2022/11/02 02:53:18;;;;;;;25.35;19.15;;;;;;;8.40;100.00;100045.47;4876344;29;20056;-89
2022/11/02 02:55:46;;;;;;;28.40;18.83;;;;;;;8.31;100.00;100032.75;4861217;29;20025;-88
2022/11/02 02:58:27;;;;;;;27.45;19.52;;;;;;;8.21;100.00;100029.56;4890527;29;20315;-89
2022/11/02 03:00:54;;;;;;;28.67;19.42;;;;;;;8.32;100.00;100046.56;4918267;29;20020;-89
2022/11/02 03:03:23;;;;;;;26.67;18.73;;;;;;;8.23;100.00;100029.53;4918424;29;20415;-88
2022/11/02 03:06:08;;;;;;;24.70;18.17;;;;;;;8.26;100.00;100045.00;4918538;29;20023;-89
2022/11/02 03:08:36;;;;;;;25.90;18.52;;;;;;;8.25;100.00;100048.47;4918625;29;20383;-89
2022/11/02 03:11:09;;;;;;;25.75;18.23;;;;;;;8.21;100.00;100045.13;4918102;29;20047;-89
2022/11/02 03:13:48;;;;;;;26.48;18.75;;;;;;;8.14;100.00;100043.63;4918113;29;20023;-88
2022/11/02 03:16:43;;;;;;;28.85;19.05;;;;;;;8.11;100.00;100043.72;4917993;29;20043;-89
2022/11/02 03:19:32;;;;;;;28.33;18.45;;;;;;;8.14;100.00;100051.41;4935135;29;20034;-89
2022/11/02 03:22:10;;;;;;;27.60;18.00;;;;;;;8.08;100.00;100042.97;4917728;29;20036;-88
2022/11/02 03:24:52;;;;;;;27.77;19.05;;;;;;;8.01;100.00;100037.13;4918258;29;20038;-90
2022/11/02 03:27:21;;;;;;;33.67;19.58;;;;;;;7.99;100.00;100039.75;4917911;29;20031;-90
2022/11/02 03:30:00;;;;;;;28.10;19.40;;;;;;;7.95;100.00;100040.72;4917989;29;20032;-89
2022/11/02 03:32:48;;;;;;;26.00;18.10;;;;;;;7.98;100.00;100053.63;4917847;29;20095;-89
2022/11/02 03:35:41;;;;;;;27.83;19.58;;;;;;;7.92;100.00;100052.94;4917878;29;20042;-90
2022/11/02 03:38:12;;;;;;;28.13;19.38;;;;;;;7.89;100.00;100058.22;4841917;29;20406;-90
2022/11/02 03:40:46;;;;;;;25.80;19.30;;;;;;;7.84;100.00;100052.34;4856752;29;20102;-89
2022/11/02 03:43:13;;;;;;;29.20;19.08;;;;;;;7.85;100.00;100059.22;4857474;29;20038;-90
2022/11/02 03:45:45;;;;;;;26.10;17.70;;;;;;;7.89;100.00;100051.28;4841980;29;20021;-89
2022/11/02 03:48:13;;;;;;;23.35;17.27;;;;;;;7.88;100.00;100048.72;4857431;29;20060;-90
2022/11/02 03:50:49;;;;;;;28.38;18.65;;;;;;;7.81;100.00;100050.66;4842072;29;20033;-89
2022/11/02 03:53:48;;;;;;;23.85;17.08;;;;;;;7.83;100.00;100051.44;4841578;29;20082;-89
2022/11/02 03:56:21;;;;;;;23.45;16.85;;;;;;;7.80;100.00;100061.94;4787185;29;20126;-89
2022/11/02 03:58:47;;;;;;;25.30;17.10;;;;;;;7.77;100.00;100061.19;4787318;29;20126;-90
2022/11/02 04:01:15;;;;;;;27.33;18.23;;;;;;;7.74;100.00;100065.53;4787125;29;20073;-89
2022/11/02 04:03:44;;;;;;;23.00;16.92;;;;;;;7.73;100.00;100060.41;4787250;29;20484;-90
2022/11/02 04:06:11;;;;;;;22.00;16.60;;;;;;;7.69;100.00;100064.81;4786913;29;20047;-90
2022/11/02 04:08:41;;;;;;;24.70;16.92;;;;;;;7.69;100.00;100064.81;4787206;29;20575;-89
2022/11/02 04:16:35;;;;;;;23.27;17.35;;;;;;;7.61;100.00;100071.13;4857072;29;20136;-90
2022/11/02 04:25:14;;;;;;;28.88;20.50;;;;;;;7.56;100.00;100076.44;4857213;29;20045;-89
2022/11/02 04:27:14;;;;;;;31.70;18.98;;;;;;;7.53;100.00;100076.50;4856793;29;20431;-90
2022/11/02 04:29:40;;;;;;;25.63;18.83;;;;;;;7.53;100.00;100076.50;4841576;29;20033;-90
2022/11/02 04:32:05;;;;;;;28.80;18.52;;;;;;;7.52;100.00;100079.16;4846024;29;20042;-90
2022/11/02 04:34:31;;;;;;;24.30;18.52;;;;;;;7.49;100.00;100080.06;4914318;29;20036;-90
2022/11/02 04:36:56;;;;;;;32.08;20.02;;;;;;;7.47;100.00;100077.53;4914040;29;20091;-90
2022/11/02 04:39:21;;;;;;;28.58;18.65;;;;;;;7.43;100.00;100075.06;4914137;29;20115;-89
2022/11/02 04:41:47;;;;;;;28.50;19.20;;;;;;;7.41;100.00;100074.25;4914305;29;20039;-90
2022/11/02 04:44:13;;;;;;;29.30;19.70;;;;;;;7.35;100.00;100067.50;4914052;29;20024;-89
2022/11/02 04:46:40;;;;;;;30.25;19.58;;;;;;;7.24;100.00;100054.81;4915490;29;20052;-90
2022/11/02 04:49:07;;;;;;;29.08;19.48;;;;;;;7.26;100.00;100065.16;4913864;29;20074;-89
2022/11/02 04:51:33;;;;;;;30.40;19.88;;;;;;;7.26;100.00;100067.75;4914555;29;20531;-89
2022/11/02 04:53:59;;;;;;;36.05;21.00;;;;;;;7.25;100.00;100073.81;4917560;29;20067;-89
2022/11/02 04:56:26;;;;;;;32.88;20.83;;;;;;;7.24;100.00;100066.91;4917436;29;20032;-88
2022/11/02 04:58:56;;;;;;;28.08;20.30;;;;;;;7.24;100.00;100070.34;4917596;29;20028;-89
2022/11/02 05:01:24;;;;;;;29.75;19.10;;;;;;;7.24;100.00;100072.94;4917390;29;20055;-89
2022/11/02 05:03:51;;;;;;;29.30;20.20;;;;;;;7.19;100.00;100059.25;4917464;29;20068;-90
2022/11/02 05:06:18;;;;;;;25.50;18.05;;;;;;;7.25;100.00;100069.50;4917025;29;20028;-89
2022/11/02 05:08:43;;;;;;;26.65;18.73;;;;;;;7.23;100.00;100063.47;4917530;29;20603;-89
2022/11/02 05:11:10;;;;;;;31.08;19.13;;;;;;;7.28;100.00;100067.69;4917195;29;20032;-89
2022/11/02 05:13:36;;;;;;;26.30;19.27;;;;;;;7.25;100.00;100066.91;4917435;29;20380;-89
2022/11/02 05:16:01;;;;;;;27.17;18.20;;;;;;;7.25;100.00;100068.63;4917013;29;20052;-89
2022/11/02 05:18:28;;;;;;;29.80;18.48;;;;;;;7.18;100.00;100065.34;4917093;29;20032;-88
2022/11/02 05:20:59;;;;;;;29.17;17.95;;;;;;;7.05;100.00;100051.03;4915665;29;20496;-89
2022/11/02 05:23:25;;;;;;;26.92;18.15;;;;;;;7.17;100.00;100071.44;4900338;29;20036;-91
2022/11/02 05:25:56;;;;;;;28.83;19.55;;;;;;;7.16;100.00;100066.25;4900111;29;20575;-91
2022/11/02 05:28:22;;;;;;;;;;;;;;;7.15;100.00;100069.75;4916214;29;20032;-91
2022/11/02 05:30:48;;;;;;;29.95;18.23;;;;;;;7.05;100.00;100069.16;4900070;29;19907;-91
2022/11/02 05:33:13;;;;;;;24.50;18.95;;;;;;;7.12;100.00;100073.28;4915687;29;20040;-90
2022/11/02 05:35:39;;;;;;;30.35;20.63;;;;;;;7.10;100.00;100085.41;4915739;29;20024;-91
2022/11/02 05:38:04;;;;;;;29.30;20.27;;;;;;;7.06;100.00;100080.34;4915763;29;20032;-91
2022/11/02 05:40:30;;;;;;;35.13;23.33;;;;;;;7.04;100.00;100074.34;4915901;29;20091;-90
2022/11/02 05:42:59;;;;;;;42.08;24.83;;;;;;;7.12;100.00;100083.66;4915690;29;20031;-90
2022/11/02 05:45:26;;;;;;;39.17;25.38;;;;;;;7.16;100.00;100084.41;4915155;29;20032;-90
2022/11/02 05:47:51;;;;;;;44.88;26.83;;;;;;;7.13;100.00;100082.75;4915367;29;20024;-90
2022/11/02 05:50:17;;;;;;;38.47;24.60;;;;;;;7.15;100.00;100082.69;4899498;29;20589;-91
2022/11/02 05:52:42;;;;;;;35.25;21.85;;;;;;;7.16;100.00;100087.00;4915495;29;20048;-90
2022/11/02 05:55:08;;;;;;;32.20;21.80;;;;;;;7.10;100.00;100079.38;4915177;29;20445;-91
2022/11/02 05:57:33;;;;;;;33.05;22.42;;;;;;;7.08;100.00;100081.16;4916005;29;20111;-91
2022/11/02 05:59:59;;;;;;;40.03;21.95;;;;;;;7.10;100.00;100084.56;4916415;29;20016;-92
2022/11/02 06:02:25;;;;;;;30.27;21.05;;;;;;;7.13;100.00;100085.34;4916136;29;20032;-91
2022/11/02 06:04:50;;;;;;;33.58;21.65;;;;;;;7.17;100.00;100086.97;4916024;29;20035;-91
2022/11/02 06:07:16;;;;;;;40.45;23.60;;;;;;;7.22;100.00;100087.69;4916068;29;20425;-90
2022/11/02 06:09:41;;;;;;;31.15;20.10;;;;;;;7.25;100.00;100095.41;4916501;29;20119;-90
2022/11/02 06:12:07;;;;;;;34.22;22.40;;;;;;;7.26;100.00;100085.88;4916032;29;20030;-92
2022/11/02 06:14:32;;;;;;;34.00;21.90;;;;;;;7.31;100.00;100094.38;4916289;29;20051;-92
2022/11/02 06:16:57;;;;;;;39.53;23.77;;;;;;;7.37;100.00;100103.72;4916085;29;20051;-92
2022/11/02 06:19:23;;;;;;;38.63;24.23;;;;;;;7.47;100.00;100103.44;4915851;29;20473;-91
2022/11/02 06:21:48;;;;;;;36.47;22.30;;;;;;;7.65;100.00;100114.22;4916431;29;20083;-92
2022/11/02 06:24:14;;;;;;;33.55;23.35;;;;;;;7.88;100.00;100110.97;4916431;29;20028;-92
2022/11/02 06:26:39;;;;;;;39.35;26.50;;;;;;;8.20;100.00;100120.44;4916237;29;20024;-92
2022/11/02 06:29:05;;;;;;;39.60;25.13;;;;;;;8.53;100.00;100115.16;4916174;29;20633;-91
2022/11/02 06:31:30;;;;;;;37.60;27.67;;;;;;;8.77;100.00;100111.81;4915806;29;20074;-89
2022/11/02 06:33:56;;;;;;;39.10;24.85;;;;;;;9.06;100.00;100110.00;4915770;29;20028;-90
2022/11/02 06:36:21;;;;;;;35.70;26.15;;;;;;;9.29;100.00;100109.25;4915692;29;20039;-90
2022/11/02 06:38:47;;;;;;;33.13;24.25;;;;;;;9.54;100.00;100104.88;4915885;29;20488;-89
2022/11/02 06:41:12;;;;;;;36.85;24.25;;;;;;;9.83;100.00;100109.06;4915422;29;20024;-90
2022/11/02 06:43:37;;;;;;;38.65;24.58;;;;;;;10.22;100.00;100113.69;4915615;29;20020;-89
2022/11/02 06:46:04;;;;;;;42.97;28.40;;;;;;;11.09;100.00;100115.50;4915237;29;20388;-88
2022/11/02 06:48:30;;;;;;;36.72;23.20;;;;;;;11.73;100.00;100097.09;4915319;29;20055;-88
2022/11/02 06:50:56;;;;;;;28.92;20.48;;;;;;;11.88;100.00;100103.44;4915715;29;20110;-88
2022/11/02 06:53:22;;;;;;;31.15;21.17;;;;;;;11.95;100.00;100117.03;4915360;29;20038;-87
2022/11/02 06:56:06;;;;;;;27.35;19.33;;;;;;;12.52;100.00;100114.47;4915633;29;20027;-88
2022/11/02 06:58:31;;;;;;;30.45;20.98;;;;;;;13.57;99.80;100111.00;4915337;29;20024;-87
2022/11/02 07:00:59;;;;;;;31.55;22.77;;;;;;;13.80;95.00;100104.59;4915280;29;20028;-88
2022/11/02 07:03:25;;;;;;;27.13;21.77;;;;;;;13.69;95.16;100116.47;4915371;29;20027;-90
2022/11/02 07:05:52;;;;;;;29.75;20.08;;;;;;;13.57;95.43;100118.84;4915411;29;20028;-89
2022/11/02 07:08:18;;;;;;;26.10;19.65;;;;;;;13.37;95.39;100125.13;4914926;29;20016;-89
2022/11/02 07:10:44;;;;;;;30.02;19.38;;;;;;;13.19;95.92;100127.72;4915127;29;20024;-89
2022/11/02 07:13:10;;;;;;;24.02;18.10;;;;;;;13.03;96.69;100129.38;4914934;29;20047;-89
2022/11/02 07:15:35;;;;;;;22.92;18.30;;;;;;;12.83;97.20;100132.97;4917101;29;20143;-90
2022/11/02 07:18:01;;;;;;;21.17;15.55;;;;;;;12.63;97.78;100130.44;4918462;29;20537;-90
2022/11/02 07:20:26;;;;;;;19.05;14.60;;;;;;;12.60;98.22;100138.44;4918231;29;20027;-91
2022/11/02 07:22:53;;;;;;;18.90;14.10;;;;;;;12.61;98.51;100127.91;4918320;29;20034;-90
2022/11/02 07:25:18;;;;;;;16.60;12.63;;;;;;;12.86;97.95;100132.81;4917820;29;20063;-90
2022/11/02 07:27:43;;;;;;;14.55;11.57;;;;;;;12.98;97.18;100141.84;4913557;29;20083;-88
2022/11/02 07:30:09;;;;;;;19.10;12.55;;;;;;;12.96;97.13;100146.28;4913905;29;20048;-89
2022/11/02 07:32:41;;;;;;;17.40;12.05;;;;;;;12.91;96.69;100145.66;4913571;29;20090;-89
2022/11/02 07:35:09;;;;;;;16.20;12.25;;;;;;;12.84;96.81;100134.66;4913601;29;20051;-89
2022/11/02 07:37:34;;;;;;;17.70;12.93;;;;;;;12.89;96.72;100142.28;4913402;29;20032;-89
2022/11/02 07:40:00;;;;;;;15.27;11.82;;;;;;;12.80;96.56;100145.31;4913536;29;20032;-89
2022/11/02 07:42:25;;;;;;;20.15;12.43;;;;;;;12.65;96.41;100142.53;4913233;29;20032;-88
2022/11/02 07:44:51;;;;;;;15.80;12.55;;;;;;;12.59;96.93;100141.97;4913467;29;20092;-89
2022/11/02 07:47:16;;;;;;;16.13;12.63;;;;;;;12.60;96.66;100136.69;4913089;29;20039;-88
2022/11/02 07:49:42;;;;;;;17.77;13.13;;;;;;;12.71;96.59;100131.78;4913377;29;20606;-89
2022/11/02 07:52:07;;;;;;;17.30;12.85;;;;;;;12.89;96.16;100126.59;4897584;29;20034;-89
2022/11/02 07:54:32;;;;;;;15.35;12.00;;;;;;;13.05;95.32;100132.75;4913230;29;20036;-89
2022/11/02 07:56:58;;;;;;;15.70;12.40;;;;;;;13.23;94.81;100121.44;4913426;29;20457;-90
2022/11/02 07:59:24;;;;;;;18.48;11.50;;;;;;;13.36;94.37;100133.91;4928820;29;20126;-90
2022/11/02 08:01:49;;;;;;;18.17;11.68;;;;;;;13.41;93.91;100127.50;4917872;29;20041;-89
2022/11/02 08:04:14;;;;;;;14.77;11.93;;;;;;;13.47;93.13;100118.50;4917348;29;20031;-90
2022/11/02 08:06:40;;;;;;;16.63;12.43;;;;;;;13.58;92.83;100128.44;4917526;29;20028;-89
2022/11/02 08:09:05;;;;;;;15.45;10.95;;;;;;;13.60;92.63;100121.31;4917651;29;20032;-90
2022/11/02 08:11:31;;;;;;;15.98;11.18;;;;;;;13.63;92.13;100124.63;4916392;29;20155;-89
2022/11/02 08:13:56;;;;;;;13.43;10.60;;;;;;;13.60;91.75;100113.47;4924136;29;20027;-88
2022/11/02 08:16:21;;;;;;;13.07;10.10;;;;;;;13.72;91.81;100118.91;4917320;29;20138;-90
2022/11/02 08:18:47;;;;;;;14.15;9.93;;;;;;;13.73;91.55;100120.59;4920728;29;20030;-90
2022/11/02 08:21:12;;;;;;;13.93;9.50;;;;;;;13.74;91.53;100113.63;4926445;29;20039;-89
2022/11/02 08:23:38;;;;;;;12.63;9.10;;;;;;;13.79;91.22;100129.09;4924245;29;20030;-90
2022/11/02 08:26:03;;;;;;;15.20;9.90;;;;;;;13.80;91.16;100128.16;4929201;29;20163;-90
2022/11/02 08:28:34;;;;;;;12.02;9.65;;;;;;;13.69;90.93;100121.72;4926578;29;20042;-88
2022/11/02 08:30:59;;;;;;;12.65;8.95;;;;;;;13.73;91.38;100119.75;4920422;29;20032;-87
2022/11/02 08:33:25;;;;;;;14.88;10.23;;;;;;;13.73;91.35;100128.47;4938247;29;20019;-87
2022/11/02 08:35:52;;;;;;;13.23;9.85;;;;;;;13.72;91.54;100132.00;4921116;29;20031;-88
2022/11/02 08:38:17;;;;;;;12.20;9.65;;;;;;;13.68;91.63;100133.09;4922737;29;20111;-87
2022/11/02 08:40:43;;;;;;;17.35;10.32;;;;;;;13.71;91.85;100132.09;4927514;29;20090;-87
2022/11/02 08:43:11;;;;;;;12.70;9.60;;;;;;;13.65;91.94;100124.53;4927270;29;20011;-87
2022/11/02 08:45:39;;;;;;;13.63;9.25;;;;;;;13.57;91.47;100104.03;4936574;29;20090;-89
2022/11/02 08:48:54;;;;;;;12.25;8.60;;;;;;;13.64;91.41;100120.25;4921531;29;20027;-92
2022/11/02 08:55:28;;;;;;;13.13;8.95;;;;;;;13.54;91.54;100119.88;4929171;29;20062;-93
2022/11/02 08:58:51;;;;;;;;;;;;;;;13.51;91.23;100121.81;4899777;29;20219;-94
2022/11/02 09:01:16;;;;;;;10.02;7.75;;;;;;;13.39;90.41;100112.81;4880988;29;19999;-92
2022/11/02 09:04:27;;;;;;;10.07;6.93;;;;;;;13.39;90.36;100112.81;4881461;29;20560;-96
2022/11/02 09:06:52;;;;;;;13.30;7.65;;;;;;;13.37;90.45;100120.75;4876040;29;20041;-92
2022/11/02 09:09:18;;;;;;;11.93;7.10;;;;;;;13.34;90.36;100117.44;4844447;29;20363;-89
2022/11/02 09:11:43;;;;;;;13.35;7.57;;;;;;;13.33;90.63;100126.22;4843295;29;20046;-90
2022/11/02 09:14:09;;;;;;;16.63;8.73;;;;;;;13.34;90.48;100117.44;4825854;29;20033;-89
2022/11/02 09:16:34;;;;;;;16.77;9.55;;;;;;;13.32;90.54;100112.28;4856405;29;20078;-88
2022/11/02 09:19:01;;;;;;;19.55;9.90;;;;;;;13.36;90.64;100113.81;4826062;29;20581;-90
2022/11/02 09:21:27;;;;;;;11.10;6.55;;;;;;;13.39;89.47;100118.88;4841120;29;20153;-91
2022/11/02 09:23:53;;;;;;;14.68;8.40;;;;;;;13.39;89.61;100116.25;4825863;29;20492;-91
2022/11/02 09:26:18;;;;;;;27.02;12.40;;;;;;;13.42;89.74;100113.50;4856351;29;20185;-89
2022/11/02 09:28:43;;;;;;;40.63;18.77;;;;;;;13.44;89.79;100113.41;4841435;29;20592;-89
2022/11/02 09:31:09;;;;;;;24.58;11.70;;;;;;;13.48;89.13;100114.94;4841304;29;20038;-87
2022/11/02 09:33:35;;;;;;;14.40;8.65;;;;;;;13.50;88.99;100107.03;4841014;29;20045;-88
2022/11/02 09:36:05;;;;;;;13.65;8.50;;;;;;;13.54;88.64;100111.19;4825709;29;20393;-88
2022/11/02 09:38:30;;;;;;;16.48;8.02;;;;;;;13.56;88.24;100111.94;4824432;29;20038;-87
2022/11/02 09:40:58;;;;;;;11.38;5.97;;;;;;;13.59;87.39;100109.16;4841010;29;20036;-87
2022/11/02 09:43:27;;;;;;;9.52;5.75;;;;;;;13.63;87.51;100118.56;4873356;29;20033;-87
2022/11/02 09:45:52;;;;;;;12.43;6.60;;;;;;;13.65;87.45;100114.06;4880958;29;20054;-87
2022/11/02 09:48:24;;;;;;;17.17;9.80;;;;;;;13.65;87.05;100106.22;4880753;29;20544;-87
2022/11/02 09:51:10;;;;;;;14.70;8.98;;;;;;;13.73;86.92;100112.75;4896623;29;20029;-87
2022/11/02 09:54:12;;;;;;;11.00;6.78;;;;;;;13.78;86.07;100122.13;4880574;29;20063;-87
2022/11/02 09:56:39;;;;;;;10.32;3.88;;;;;;;13.79;84.47;100119.47;4876818;29;20575;-89
2022/11/02 09:59:12;;;;;;;9.80;4.25;;;;;;;13.78;83.35;100116.91;4876533;29;20124;-87
2022/11/02 10:01:55;;;;;;;6.25;3.95;;;;;;;13.80;83.14;100115.91;4860906;29;20098;-87
2022/11/02 10:04:58;;;;;;;9.27;4.75;;;;;;;13.81;82.91;100119.38;4861478;29;20036;-88
2022/11/02 10:07:47;;;;;;;9.60;4.78;;;;;;;13.79;81.89;100111.59;4861491;29;20504;-86
2022/11/02 10:10:15;;;;;;;10.45;4.50;;;;;;;13.77;81.95;100107.34;4860453;29;20041;-89
2022/11/02 10:13:06;;;;;;;9.80;4.60;;;;;;;13.78;82.19;100114.28;4857893;29;20048;-86
2022/11/02 10:15:39;;;;;;;7.70;4.80;;;;;;;13.75;82.75;100107.44;4874096;29;20154;-87
2022/11/02 10:18:08;;;;;;;10.55;4.75;;;;;;;13.73;82.26;100112.75;4861506;29;20040;-89
2022/11/02 10:20:39;;;;;;;7.82;4.05;;;;;;;13.80;82.53;100108.06;4861380;29;20044;-89
2022/11/02 10:23:11;;;;;;;;;;;;;;;13.83;82.45;100109.69;4861919;29;20120;-88
2022/11/02 10:25:36;;;;;;;8.18;4.28;;;;;;;13.81;81.92;100107.13;4861345;29;20001;-87
2022/11/02 10:28:17;;;;;;;12.15;4.85;;;;;;;13.77;82.28;100095.13;4877112;29;20045;-88
2022/11/02 10:30:43;;;;;;;8.98;4.72;;;;;;;13.86;82.18;100112.09;4861621;29;20185;-88
2022/11/02 10:33:23;;;;;;;11.27;4.88;;;;;;;13.91;82.29;100110.13;4891761;29;20178;-91
2022/11/02 10:36:00;;;;;;;9.27;5.27;;;;;;;13.91;82.36;100124.06;4903967;29;20031;-91
2022/11/02 10:39:03;;;;;;;10.25;4.82;;;;;;;13.92;82.32;100122.28;4934728;29;20023;-90
2022/11/02 10:41:34;;;;;;;8.68;4.22;;;;;;;13.93;81.40;100123.97;4934505;29;20020;-88
2022/11/02 10:44:18;;;;;;;11.10;5.70;;;;;;;13.93;81.03;100123.97;4934723;29;20034;-89
2022/11/02 10:50:04;;;;;;;8.88;4.18;;;;;;;13.95;81.21;100109.03;5182199;23;20674;-87
2022/11/02 10:52:38;;;;;;;8.93;4.43;;;;;;;13.94;81.25;100105.53;4995364;28;20040;-89
2022/11/02 10:55:09;;;;;;;7.25;4.20;;;;;;;13.97;81.51;100096.69;4995458;28;20600;-87
2022/11/02 10:57:38;;;;;;;9.88;4.32;;;;;;;13.91;81.18;100086.56;4995161;28;20057;-88
2022/11/02 11:00:30;;;;;;;11.05;4.30;;;;;;;14.02;81.11;100107.75;4995431;28;20040;-87
2022/11/02 11:03:15;;;;;;;10.38;4.05;;;;;;;14.04;80.99;100102.44;5012911;28;20006;-87
2022/11/02 11:05:49;;;;;;;8.18;4.00;;;;;;;14.06;80.92;100104.03;4990511;28;20030;-86
2022/11/02 11:08:30;;;;;;;8.68;4.88;;;;;;;14.08;80.86;100102.19;4974475;28;20046;-89
2022/11/02 11:11:09;;;;;;;7.90;3.90;;;;;;;14.11;80.64;100103.78;4974655;28;20124;-92
2022/11/02 11:13:35;;;;;;;9.15;4.13;;;;;;;14.11;80.29;100096.78;4974498;28;20066;-91
2022/11/02 11:16:02;;;;;;;6.97;4.05;;;;;;;14.17;80.73;100087.75;4975738;28;20027;-87
2022/11/02 11:18:28;;;;;;;11.77;4.78;;;;;;;14.21;80.87;100097.97;5001715;28;20033;-88
2022/11/02 11:20:54;;;;;;;11.75;4.40;;;;;;;14.25;81.02;100092.59;4974383;28;20268;-89
2022/11/02 11:23:22;;;;;;;8.68;4.25;;;;;;;14.23;81.17;100075.16;4976369;28;20018;-88
2022/11/02 11:25:55;;;;;;;11.55;4.00;;;;;;;14.30;80.93;100086.16;4981661;28;20117;-89
2022/11/02 11:28:54;;;;;;;9.02;4.50;;;;;;;14.33;80.40;100074.66;4999403;28;20026;-86
2022/11/02 11:31:20;;;;;;;9.90;3.60;;;;;;;14.27;80.05;100069.75;4925196;29;20035;-88
2022/11/02 11:33:56;;;;;;;10.57;3.90;;;;;;;14.33;79.17;100082.53;4922683;29;20568;-87
2022/11/02 11:36:24;;;;;;;10.65;4.22;;;;;;;14.33;79.02;100077.28;4945339;28;20402;-88
2022/11/02 11:38:51;;;;;;;8.73;3.80;;;;;;;14.32;79.11;100067.72;4944370;28;20023;-88
2022/11/02 11:41:17;;;;;;;9.73;4.22;;;;;;;14.34;79.45;100068.50;4941889;28;20130;-88
2022/11/02 11:43:44;;;;;;;7.82;3.88;;;;;;;14.26;79.32;100053.19;4942572;28;20030;-88